sensor_id;sensor_type;location;lat;lon;timestamp;P1;durP1;ratioP1;P2;durP2;ratioP2
74967;SDS011;63523;51.880;12.630;2022-11-11T00:00:30;5.95;;;1.60;;
74967;SDS011;63523;51.880;12.630;2022-11-11T00:02:56;5.23;;;1.60;;
74967;SDS011;63523;51.880;12.630;2022-11-11T00:05:23;5.38;;;1.70;;
74967;SDS011;63523;51.880;12.630;2022-11-11T00:07:53;4.97;;;1.52;;
74967;SDS011;63523;51.880;12.630;2022-11-11T00:10:26;5.72;;;1.40;;
74967;SDS011;63523;51.880;12.630;2022-11-11T00:12:53;6.90;;;2.00;;
74967;SDS011;63523;51.880;12.630;2022-11-11T00:15:18;3.97;;;1.37;;
74967;SDS011;63523;51.880;12.630;2022-11-11T00:17:44;5.87;;;1.57;;
74967;SDS011;63523;51.880;12.630;2022-11-11T00:20:28;5.03;;;1.45;;
74967;SDS011;63523;51.880;12.630;2022-11-11T00:23:22;4.53;;;1.48;;
74967;SDS011;63523;51.880;12.630;2022-11-11T00:26:07;5.65;;;1.30;;
74967;SDS011;63523;51.880;12.630;2022-11-11T00:28:35;5.25;;;1.48;;
74967;SDS011;63523;51.880;12.630;2022-11-11T00:31:04;7.70;;;1.83;;
74967;SDS011;63523;51.880;12.630;2022-11-11T00:33:34;8.85;;;1.95;;
74967;SDS011;63523;51.880;12.630;2022-11-11T00:36:00;6.37;;;1.77;;
74967;SDS011;63523;51.880;12.630;2022-11-11T00:38:25;6.63;;;2.13;;
74967;SDS011;63523;51.880;12.630;2022-11-11T00:41:10;5.78;;;2.10;;
74967;SDS011;63523;51.880;12.630;2022-11-11T00:43:37;6.00;;;1.73;;
74967;SDS011;63523;51.880;12.630;2022-11-11T00:46:03;7.82;;;1.90;;
74967;SDS011;63523;51.880;12.630;2022-11-11T00:48:47;7.13;;;1.73;;
74967;SDS011;63523;51.880;12.630;2022-11-11T00:51:31;5.88;;;1.50;;
74967;SDS011;63523;51.880;12.630;2022-11-11T00:53:56;4.43;;;1.30;;
74967;SDS011;63523;51.880;12.630;2022-11-11T00:56:22;6.13;;;1.50;;
74967;SDS011;63523;51.880;12.630;2022-11-11T00:58:48;5.50;;;1.60;;
74967;SDS011;63523;51.880;12.630;2022-11-11T01:01:14;5.87;;;1.67;;
74967;SDS011;63523;51.880;12.630;2022-11-11T01:03:39;4.47;;;1.17;;
74967;SDS011;63523;51.880;12.630;2022-11-11T01:06:05;4.97;;;1.20;;
74967;SDS011;63523;51.880;12.630;2022-11-11T01:08:31;5.18;;;1.38;;
74967;SDS011;63523;51.880;12.630;2022-11-11T01:10:57;6.32;;;1.55;;
74967;SDS011;63523;51.880;12.630;2022-11-11T01:13:30;5.60;;;1.57;;
74967;SDS011;63523;51.880;12.630;2022-11-11T01:15:58;5.55;;;1.48;;
74967;SDS011;63523;51.880;12.630;2022-11-11T01:18:28;6.22;;;1.60;;
74967;SDS011;63523;51.880;12.630;2022-11-11T01:21:03;5.70;;;2.03;;
74967;SDS011;63523;51.880;12.630;2022-11-11T01:23:30;5.10;;;1.48;;
74967;SDS011;63523;51.880;12.630;2022-11-11T01:26:15;5.80;;;1.60;;
74967;SDS011;63523;51.880;12.630;2022-11-11T01:28:52;5.60;;;1.60;;
74967;SDS011;63523;51.880;12.630;2022-11-11T01:31:20;4.97;;;1.43;;
74967;SDS011;63523;51.880;12.630;2022-11-11T01:33:47;6.28;;;1.65;;
74967;SDS011;63523;51.880;12.630;2022-11-11T01:36:14;5.03;;;1.40;;
74967;SDS011;63523;51.880;12.630;2022-11-11T01:38:47;6.70;;;1.53;;
74967;SDS011;63523;51.880;12.630;2022-11-11T01:41:15;5.80;;;1.77;;
74967;SDS011;63523;51.880;12.630;2022-11-11T01:46:29;4.07;;;1.38;;
74967;SDS011;63523;51.880;12.630;2022-11-11T01:54:19;6.75;;;1.58;;
74967;SDS011;63523;51.880;12.630;2022-11-11T01:56:57;4.70;;;1.27;;
74967;SDS011;63523;51.880;12.630;2022-11-11T01:59:36;5.70;;;1.67;;
74967;SDS011;63523;51.880;12.630;2022-11-11T02:02:04;4.85;;;1.50;;
74967;SDS011;63523;51.880;12.630;2022-11-11T02:04:36;5.50;;;1.57;;
74967;SDS011;63523;51.880;12.630;2022-11-11T02:07:20;4.18;;;1.35;;
74967;SDS011;63523;51.880;12.630;2022-11-11T02:09:47;6.35;;;1.45;;
74967;SDS011;63523;51.880;12.630;2022-11-11T02:12:14;5.75;;;1.48;;
74967;SDS011;63523;51.880;12.630;2022-11-11T02:14:59;6.50;;;1.60;;
74967;SDS011;63523;51.880;12.630;2022-11-11T02:17:25;4.70;;;1.47;;
74967;SDS011;63523;51.880;12.630;2022-11-11T02:19:57;4.88;;;1.50;;
74967;SDS011;63523;51.880;12.630;2022-11-11T02:25:16;3.60;;;0.90;;
74967;SDS011;63523;51.880;12.630;2022-11-11T02:27:44;5.25;;;0.93;;
74967;SDS011;63523;51.880;12.630;2022-11-11T02:30:15;5.40;;;1.40;;
74967;SDS011;63523;51.880;12.630;2022-11-11T02:32:43;5.13;;;1.38;;
74967;SDS011;63523;51.880;12.630;2022-11-11T02:35:11;4.78;;;1.55;;
74967;SDS011;63523;51.880;12.630;2022-11-11T02:37:44;5.10;;;1.33;;
74967;SDS011;63523;51.880;12.630;2022-11-11T02:40:11;4.95;;;1.42;;
74967;SDS011;63523;51.880;12.630;2022-11-11T02:42:40;5.33;;;1.40;;
74967;SDS011;63523;51.880;12.630;2022-11-11T02:45:06;4.50;;;1.40;;
74967;SDS011;63523;51.880;12.630;2022-11-11T02:47:31;8.73;;;1.47;;
74967;SDS011;63523;51.880;12.630;2022-11-11T02:49:57;3.80;;;1.20;;
74967;SDS011;63523;51.880;12.630;2022-11-11T02:52:22;7.07;;;1.50;;
74967;SDS011;63523;51.880;12.630;2022-11-11T02:54:48;6.47;;;1.53;;
74967;SDS011;63523;51.880;12.630;2022-11-11T02:57:14;5.32;;;1.60;;
74967;SDS011;63523;51.880;12.630;2022-11-11T02:59:40;4.63;;;1.10;;
74967;SDS011;63523;51.880;12.630;2022-11-11T03:02:06;5.13;;;1.30;;
74967;SDS011;63523;51.880;12.630;2022-11-11T03:04:32;4.25;;;1.05;;
74967;SDS011;63523;51.880;12.630;2022-11-11T03:06:58;6.85;;;1.30;;
74967;SDS011;63523;51.880;12.630;2022-11-11T03:09:25;5.33;;;1.03;;
74967;SDS011;63523;51.880;12.630;2022-11-11T03:11:51;4.32;;;1.10;;
74967;SDS011;63523;51.880;12.630;2022-11-11T03:14:16;4.95;;;1.33;;
74967;SDS011;63523;51.880;12.630;2022-11-11T03:16:42;4.60;;;1.30;;
74967;SDS011;63523;51.880;12.630;2022-11-11T03:19:26;6.50;;;1.58;;
74967;SDS011;63523;51.880;12.630;2022-11-11T03:21:51;5.27;;;1.60;;
74967;SDS011;63523;51.880;12.630;2022-11-11T03:24:17;6.27;;;1.80;;
74967;SDS011;63523;51.880;12.630;2022-11-11T03:26:42;5.10;;;1.90;;
74967;SDS011;63523;51.880;12.630;2022-11-11T03:29:08;5.20;;;1.52;;
74967;SDS011;63523;51.880;12.630;2022-11-11T03:31:33;4.50;;;1.43;;
74967;SDS011;63523;51.880;12.630;2022-11-11T03:33:59;5.10;;;1.57;;
74967;SDS011;63523;51.880;12.630;2022-11-11T03:36:42;6.43;;;1.60;;
74967;SDS011;63523;51.880;12.630;2022-11-11T03:39:27;4.93;;;1.48;;
74967;SDS011;63523;51.880;12.630;2022-11-11T03:41:53;5.00;;;1.60;;
74967;SDS011;63523;51.880;12.630;2022-11-11T03:44:20;5.10;;;1.80;;
74967;SDS011;63523;51.880;12.630;2022-11-11T03:46:45;7.28;;;1.92;;
74967;SDS011;63523;51.880;12.630;2022-11-11T03:49:11;5.40;;;1.33;;
74967;SDS011;63523;51.880;12.630;2022-11-11T03:51:36;6.90;;;1.90;;
74967;SDS011;63523;51.880;12.630;2022-11-11T03:54:02;6.20;;;1.92;;
74967;SDS011;63523;51.880;12.630;2022-11-11T03:56:27;5.43;;;1.40;;
74967;SDS011;63523;51.880;12.630;2022-11-11T03:58:53;5.00;;;1.83;;
74967;SDS011;63523;51.880;12.630;2022-11-11T04:01:18;7.55;;;2.22;;
74967;SDS011;63523;51.880;12.630;2022-11-11T04:04:02;5.93;;;1.70;;
74967;SDS011;63523;51.880;12.630;2022-11-11T04:06:46;6.22;;;1.80;;
74967;SDS011;63523;51.880;12.630;2022-11-11T04:09:30;7.20;;;1.80;;
74967;SDS011;63523;51.880;12.630;2022-11-11T04:12:14;6.95;;;1.88;;
74967;SDS011;63523;51.880;12.630;2022-11-11T04:14:40;5.97;;;1.57;;
74967;SDS011;63523;51.880;12.630;2022-11-11T04:17:24;7.38;;;2.15;;
74967;SDS011;63523;51.880;12.630;2022-11-11T04:19:49;6.70;;;2.10;;
74967;SDS011;63523;51.880;12.630;2022-11-11T04:22:38;6.85;;;1.75;;
74967;SDS011;63523;51.880;12.630;2022-11-11T04:25:06;6.82;;;2.17;;
74967;SDS011;63523;51.880;12.630;2022-11-11T04:27:50;8.85;;;2.22;;
74967;SDS011;63523;51.880;12.630;2022-11-11T04:30:36;4.72;;;1.48;;
74967;SDS011;63523;51.880;12.630;2022-11-11T04:33:01;5.77;;;1.73;;
74967;SDS011;63523;51.880;12.630;2022-11-11T04:35:26;5.60;;;1.80;;
74967;SDS011;63523;51.880;12.630;2022-11-11T04:37:52;6.40;;;1.90;;
74967;SDS011;63523;51.880;12.630;2022-11-11T04:40:37;6.38;;;1.88;;
74967;SDS011;63523;51.880;12.630;2022-11-11T04:43:21;6.20;;;2.00;;
74967;SDS011;63523;51.880;12.630;2022-11-11T04:45:47;6.67;;;1.67;;
74967;SDS011;63523;51.880;12.630;2022-11-11T04:48:12;4.73;;;1.57;;
74967;SDS011;63523;51.880;12.630;2022-11-11T04:50:40;7.63;;;2.10;;
74967;SDS011;63523;51.880;12.630;2022-11-11T04:53:08;8.18;;;1.50;;
74967;SDS011;63523;51.880;12.630;2022-11-11T04:55:35;8.70;;;1.85;;
74967;SDS011;63523;51.880;12.630;2022-11-11T04:58:21;8.00;;;2.13;;
74967;SDS011;63523;51.880;12.630;2022-11-11T05:00:48;7.63;;;1.90;;
74967;SDS011;63523;51.880;12.630;2022-11-11T05:03:14;7.83;;;2.10;;
74967;SDS011;63523;51.880;12.630;2022-11-11T05:05:51;6.28;;;1.70;;
74967;SDS011;63523;51.880;12.630;2022-11-11T05:08:38;8.20;;;2.23;;
74967;SDS011;63523;51.880;12.630;2022-11-11T05:11:30;7.15;;;2.22;;
74967;SDS011;63523;51.880;12.630;2022-11-11T05:13:59;6.78;;;2.20;;
74967;SDS011;63523;51.880;12.630;2022-11-11T05:16:48;7.40;;;1.92;;
74967;SDS011;63523;51.880;12.630;2022-11-11T05:19:56;8.73;;;2.63;;
74967;SDS011;63523;51.880;12.630;2022-11-11T05:22:41;6.17;;;2.10;;
74967;SDS011;63523;51.880;12.630;2022-11-11T05:25:08;7.70;;;1.95;;
74967;SDS011;63523;51.880;12.630;2022-11-11T05:27:50;7.22;;;1.80;;
74967;SDS011;63523;51.880;12.630;2022-11-11T05:30:19;7.95;;;1.80;;
74967;SDS011;63523;51.880;12.630;2022-11-11T05:32:46;6.50;;;1.95;;
74967;SDS011;63523;51.880;12.630;2022-11-11T05:35:12;6.83;;;1.53;;
74967;SDS011;63523;51.880;12.630;2022-11-11T05:37:38;7.28;;;2.00;;
74967;SDS011;63523;51.880;12.630;2022-11-11T05:40:04;7.90;;;2.30;;
74967;SDS011;63523;51.880;12.630;2022-11-11T05:42:31;9.10;;;2.30;;
74967;SDS011;63523;51.880;12.630;2022-11-11T05:44:56;9.13;;;2.53;;
74967;SDS011;63523;51.880;12.630;2022-11-11T05:47:22;8.65;;;2.63;;
74967;SDS011;63523;51.880;12.630;2022-11-11T05:49:48;9.30;;;2.50;;
74967;SDS011;63523;51.880;12.630;2022-11-11T05:52:14;8.68;;;2.35;;
74967;SDS011;63523;51.880;12.630;2022-11-11T05:54:40;6.73;;;1.90;;
74967;SDS011;63523;51.880;12.630;2022-11-11T05:57:06;9.02;;;2.42;;
74967;SDS011;63523;51.880;12.630;2022-11-11T05:59:32;10.18;;;2.80;;
74967;SDS011;63523;51.880;12.630;2022-11-11T06:01:57;8.50;;;3.00;;
74967;SDS011;63523;51.880;12.630;2022-11-11T06:04:23;7.90;;;2.67;;
74967;SDS011;63523;51.880;12.630;2022-11-11T06:06:49;10.98;;;2.85;;
74967;SDS011;63523;51.880;12.630;2022-11-11T06:09:14;8.33;;;1.93;;
74967;SDS011;63523;51.880;12.630;2022-11-11T06:11:40;7.35;;;2.25;;
74967;SDS011;63523;51.880;12.630;2022-11-11T06:14:06;9.77;;;2.30;;
74967;SDS011;63523;51.880;12.630;2022-11-11T06:16:31;7.10;;;1.98;;
74967;SDS011;63523;51.880;12.630;2022-11-11T06:18:57;6.97;;;1.70;;
74967;SDS011;63523;51.880;12.630;2022-11-11T06:21:24;9.65;;;2.17;;
74967;SDS011;63523;51.880;12.630;2022-11-11T06:23:50;9.07;;;2.63;;
74967;SDS011;63523;51.880;12.630;2022-11-11T06:26:16;9.30;;;1.97;;
74967;SDS011;63523;51.880;12.630;2022-11-11T06:28:48;6.90;;;1.73;;
74967;SDS011;63523;51.880;12.630;2022-11-11T06:31:16;10.15;;;2.42;;
74967;SDS011;63523;51.880;12.630;2022-11-11T06:33:47;8.98;;;2.80;;
74967;SDS011;63523;51.880;12.630;2022-11-11T06:36:13;9.43;;;2.27;;
74967;SDS011;63523;51.880;12.630;2022-11-11T06:38:40;9.52;;;2.63;;
74967;SDS011;63523;51.880;12.630;2022-11-11T06:41:06;5.67;;;1.93;;
74967;SDS011;63523;51.880;12.630;2022-11-11T06:43:34;6.85;;;1.73;;
74967;SDS011;63523;51.880;12.630;2022-11-11T06:46:00;8.90;;;2.13;;
74967;SDS011;63523;51.880;12.630;2022-11-11T06:48:26;6.97;;;1.85;;
74967;SDS011;63523;51.880;12.630;2022-11-11T06:50:53;6.13;;;2.40;;
74967;SDS011;63523;51.880;12.630;2022-11-11T06:53:20;7.07;;;2.45;;
74967;SDS011;63523;51.880;12.630;2022-11-11T06:55:46;7.80;;;2.25;;
74967;SDS011;63523;51.880;12.630;2022-11-11T06:58:16;7.55;;;2.60;;
74967;SDS011;63523;51.880;12.630;2022-11-11T07:00:43;11.33;;;2.43;;
74967;SDS011;63523;51.880;12.630;2022-11-11T07:03:13;8.77;;;2.30;;
74967;SDS011;63523;51.880;12.630;2022-11-11T07:05:40;6.93;;;2.20;;
74967;SDS011;63523;51.880;12.630;2022-11-11T07:08:08;8.20;;;2.97;;
74967;SDS011;63523;51.880;12.630;2022-11-11T07:10:39;11.38;;;3.28;;
74967;SDS011;63523;51.880;12.630;2022-11-11T07:13:08;8.37;;;2.27;;
74967;SDS011;63523;51.880;12.630;2022-11-11T07:15:35;9.23;;;1.83;;
74967;SDS011;63523;51.880;12.630;2022-11-11T07:18:01;6.78;;;1.92;;
74967;SDS011;63523;51.880;12.630;2022-11-11T07:20:27;5.17;;;1.80;;
74967;SDS011;63523;51.880;12.630;2022-11-11T07:22:53;8.45;;;2.00;;
74967;SDS011;63523;51.880;12.630;2022-11-11T07:25:18;5.73;;;1.87;;
74967;SDS011;63523;51.880;12.630;2022-11-11T07:27:44;10.98;;;3.00;;
74967;SDS011;63523;51.880;12.630;2022-11-11T07:30:10;8.07;;;2.50;;
74967;SDS011;63523;51.880;12.630;2022-11-11T07:32:36;6.28;;;2.00;;
74967;SDS011;63523;51.880;12.630;2022-11-11T07:35:08;10.57;;;3.03;;
74967;SDS011;63523;51.880;12.630;2022-11-11T07:37:35;7.47;;;2.20;;
74967;SDS011;63523;51.880;12.630;2022-11-11T07:40:01;9.32;;;2.63;;
74967;SDS011;63523;51.880;12.630;2022-11-11T07:42:27;8.27;;;2.23;;
74967;SDS011;63523;51.880;12.630;2022-11-11T07:44:52;8.05;;;2.08;;
74967;SDS011;63523;51.880;12.630;2022-11-11T07:47:18;6.80;;;2.13;;
74967;SDS011;63523;51.880;12.630;2022-11-11T07:49:44;10.82;;;3.47;;
74967;SDS011;63523;51.880;12.630;2022-11-11T07:52:09;9.37;;;3.87;;
74967;SDS011;63523;51.880;12.630;2022-11-11T07:54:35;12.07;;;4.97;;
74967;SDS011;63523;51.880;12.630;2022-11-11T07:57:00;13.63;;;4.15;;
74967;SDS011;63523;51.880;12.630;2022-11-11T07:59:26;7.77;;;2.83;;
74967;SDS011;63523;51.880;12.630;2022-11-11T08:01:51;5.93;;;2.07;;
74967;SDS011;63523;51.880;12.630;2022-11-11T08:04:17;6.57;;;1.90;;
74967;SDS011;63523;51.880;12.630;2022-11-11T08:06:42;8.00;;;2.10;;
74967;SDS011;63523;51.880;12.630;2022-11-11T08:09:08;8.77;;;1.90;;
74967;SDS011;63523;51.880;12.630;2022-11-11T08:11:36;6.55;;;2.00;;
74967;SDS011;63523;51.880;12.630;2022-11-11T08:14:20;10.43;;;2.37;;
74967;SDS011;63523;51.880;12.630;2022-11-11T08:16:46;6.20;;;2.20;;
74967;SDS011;63523;51.880;12.630;2022-11-11T08:19:11;8.80;;;2.20;;
74967;SDS011;63523;51.880;12.630;2022-11-11T08:21:37;7.60;;;2.10;;
74967;SDS011;63523;51.880;12.630;2022-11-11T08:24:02;6.85;;;2.20;;
74967;SDS011;63523;51.880;12.630;2022-11-11T08:26:28;7.43;;;2.20;;
74967;SDS011;63523;51.880;12.630;2022-11-11T08:28:54;9.83;;;2.87;;
74967;SDS011;63523;51.880;12.630;2022-11-11T08:31:19;10.73;;;3.23;;
74967;SDS011;63523;51.880;12.630;2022-11-11T08:33:45;8.20;;;2.50;;
74967;SDS011;63523;51.880;12.630;2022-11-11T08:36:10;6.18;;;1.95;;
74967;SDS011;63523;51.880;12.630;2022-11-11T08:38:37;7.60;;;2.27;;
74967;SDS011;63523;51.880;12.630;2022-11-11T08:41:04;6.85;;;2.20;;
74967;SDS011;63523;51.880;12.630;2022-11-11T08:43:30;7.80;;;1.80;;
74967;SDS011;63523;51.880;12.630;2022-11-11T08:46:00;6.65;;;1.80;;
74967;SDS011;63523;51.880;12.630;2022-11-11T08:48:28;9.83;;;2.00;;
74967;SDS011;63523;51.880;12.630;2022-11-11T08:50:55;4.10;;;1.08;;
74967;SDS011;63523;51.880;12.630;2022-11-11T08:53:21;8.05;;;1.58;;
74967;SDS011;63523;51.880;12.630;2022-11-11T08:55:47;8.75;;;1.20;;
74967;SDS011;63523;51.880;12.630;2022-11-11T08:58:13;6.30;;;1.03;;
74967;SDS011;63523;51.880;12.630;2022-11-11T09:00:38;5.90;;;1.10;;
74967;SDS011;63523;51.880;12.630;2022-11-11T09:03:08;7.33;;;0.90;;
74967;SDS011;63523;51.880;12.630;2022-11-11T09:05:36;8.07;;;1.27;;
74967;SDS011;63523;51.880;12.630;2022-11-11T09:08:03;7.13;;;1.05;;
74967;SDS011;63523;51.880;12.630;2022-11-11T09:10:33;4.97;;;1.10;;
74967;SDS011;63523;51.880;12.630;2022-11-11T09:13:00;4.57;;;1.10;;
74967;SDS011;63523;51.880;12.630;2022-11-11T09:15:26;6.85;;;1.15;;
74967;SDS011;63523;51.880;12.630;2022-11-11T09:17:52;8.63;;;1.40;;
74967;SDS011;63523;51.880;12.630;2022-11-11T09:20:18;7.50;;;1.90;;
74967;SDS011;63523;51.880;12.630;2022-11-11T09:22:44;7.87;;;1.60;;
74967;SDS011;63523;51.880;12.630;2022-11-11T09:25:10;9.90;;;1.60;;
74967;SDS011;63523;51.880;12.630;2022-11-11T09:27:36;5.10;;;1.00;;
74967;SDS011;63523;51.880;12.630;2022-11-11T09:30:03;4.32;;;0.90;;
74967;SDS011;63523;51.880;12.630;2022-11-11T09:32:30;5.72;;;1.35;;
74967;SDS011;63523;51.880;12.630;2022-11-11T09:34:56;4.50;;;1.30;;
74967;SDS011;63523;51.880;12.630;2022-11-11T09:37:22;7.82;;;1.15;;
74967;SDS011;63523;51.880;12.630;2022-11-11T09:39:47;8.13;;;1.10;;
74967;SDS011;63523;51.880;12.630;2022-11-11T09:47:13;7.47;;;1.13;;
74967;SDS011;63523;51.880;12.630;2022-11-11T09:52:44;5.20;;;0.83;;
74967;SDS011;63523;51.880;12.630;2022-11-11T09:55:17;5.03;;;0.88;;
74967;SDS011;63523;51.880;12.630;2022-11-11T09:57:58;5.05;;;1.15;;
74967;SDS011;63523;51.880;12.630;2022-11-11T10:00:29;5.28;;;1.00;;
74967;SDS011;63523;51.880;12.630;2022-11-11T10:03:34;5.80;;;0.98;;
74967;SDS011;63523;51.880;12.630;2022-11-11T10:11:38;4.93;;;1.00;;
74967;SDS011;63523;51.880;12.630;2022-11-11T10:14:26;6.88;;;1.30;;
74967;SDS011;63523;51.880;12.630;2022-11-11T10:19:33;5.80;;;0.93;;
74967;SDS011;63523;51.880;12.630;2022-11-11T10:22:08;4.55;;;0.90;;
74967;SDS011;63523;51.880;12.630;2022-11-11T10:24:45;4.88;;;1.10;;
74967;SDS011;63523;51.880;12.630;2022-11-11T10:27:24;6.28;;;0.80;;
74967;SDS011;63523;51.880;12.630;2022-11-11T10:29:50;5.33;;;1.03;;
74967;SDS011;63523;51.880;12.630;2022-11-11T10:32:19;4.97;;;1.00;;
74967;SDS011;63523;51.880;12.630;2022-11-11T10:34:49;5.95;;;0.93;;
74967;SDS011;63523;51.880;12.630;2022-11-11T10:37:22;7.80;;;1.30;;
74967;SDS011;63523;51.880;12.630;2022-11-11T10:42:38;5.15;;;1.20;;
74967;SDS011;63523;51.880;12.630;2022-11-11T10:45:07;7.67;;;0.90;;
74967;SDS011;63523;51.880;12.630;2022-11-11T10:50:23;4.18;;;0.88;;
74967;SDS011;63523;51.880;12.630;2022-11-11T10:58:22;13.43;;;7.90;;
74967;SDS011;63523;51.880;12.630;2022-11-11T11:00:56;5.57;;;1.90;;
74967;SDS011;63523;51.880;12.630;2022-11-11T11:03:33;4.95;;;1.02;;
74967;SDS011;63523;51.880;12.630;2022-11-11T11:08:51;4.57;;;1.08;;
74967;SDS011;63523;51.880;12.630;2022-11-11T11:14:33;6.40;;;1.02;;
74967;SDS011;63523;51.880;12.630;2022-11-11T11:17:06;6.75;;;0.75;;
74967;SDS011;63523;51.880;12.630;2022-11-11T11:19:36;3.47;;;0.82;;
74967;SDS011;63523;51.880;12.630;2022-11-11T11:22:02;4.90;;;0.87;;
74967;SDS011;63523;51.880;12.630;2022-11-11T11:24:30;5.28;;;0.90;;
74967;SDS011;63523;51.880;12.630;2022-11-11T11:26:58;4.38;;;0.60;;
74967;SDS011;63523;51.880;12.630;2022-11-11T11:29:26;3.00;;;0.70;;
74967;SDS011;63523;51.880;12.630;2022-11-11T11:34:55;5.68;;;0.90;;
74967;SDS011;63523;51.880;12.630;2022-11-11T11:37:25;4.63;;;0.95;;
74967;SDS011;63523;51.880;12.630;2022-11-11T11:39:58;4.22;;;0.70;;
74967;SDS011;63523;51.880;12.630;2022-11-11T11:42:29;4.78;;;0.80;;
74967;SDS011;63523;51.880;12.630;2022-11-11T11:44:55;5.37;;;0.90;;
74967;SDS011;63523;51.880;12.630;2022-11-11T11:47:32;6.28;;;0.80;;
74967;SDS011;63523;51.880;12.630;2022-11-11T11:53:20;5.65;;;0.88;;
74967;SDS011;63523;51.880;12.630;2022-11-11T12:01:41;6.05;;;0.80;;
74967;SDS011;63523;51.880;12.630;2022-11-11T12:10:34;3.57;;;0.73;;
74967;SDS011;63523;51.880;12.630;2022-11-11T12:15:42;4.93;;;0.50;;
74967;SDS011;63523;51.880;12.630;2022-11-11T12:18:17;6.97;;;0.75;;
74967;SDS011;63523;51.880;12.630;2022-11-11T12:21:03;5.45;;;0.88;;
74967;SDS011;63523;51.880;12.630;2022-11-11T12:23:40;3.20;;;0.53;;
74967;SDS011;63523;51.880;12.630;2022-11-11T12:26:37;4.50;;;0.60;;
74967;SDS011;63523;51.880;12.630;2022-11-11T12:40:45;4.15;;;0.90;;
74967;SDS011;63523;51.880;12.630;2022-11-11T12:54:26;6.07;;;0.63;;
74967;SDS011;63523;51.880;12.630;2022-11-11T13:11:20;4.20;;;0.60;;
74967;SDS011;63523;51.880;12.630;2022-11-11T13:14:24;3.95;;;0.30;;
74967;SDS011;63523;51.880;12.630;2022-11-11T13:16:55;3.90;;;0.70;;
74967;SDS011;63523;51.880;12.630;2022-11-11T13:19:30;3.05;;;0.43;;
74967;SDS011;63523;51.880;12.630;2022-11-11T13:22:11;3.95;;;0.65;;
74967;SDS011;63523;51.880;12.630;2022-11-11T13:24:46;3.57;;;0.60;;
74967;SDS011;63523;51.880;12.630;2022-11-11T13:27:33;4.50;;;0.60;;
74967;SDS011;63523;51.880;12.630;2022-11-11T13:32:51;3.17;;;0.50;;
74967;SDS011;63523;51.880;12.630;2022-11-11T13:38:11;5.70;;;0.70;;
74967;SDS011;63523;51.880;12.630;2022-11-11T13:40:51;4.55;;;0.80;;
74967;SDS011;63523;51.880;12.630;2022-11-11T13:43:21;4.50;;;0.80;;
74967;SDS011;63523;51.880;12.630;2022-11-11T13:45:59;4.50;;;0.90;;
74967;SDS011;63523;51.880;12.630;2022-11-11T13:48:33;5.75;;;1.02;;
74967;SDS011;63523;51.880;12.630;2022-11-11T13:54:20;3.47;;;0.70;;
74967;SDS011;63523;51.880;12.630;2022-11-11T13:56:52;5.00;;;0.68;;
74967;SDS011;63523;51.880;12.630;2022-11-11T13:59:31;5.90;;;0.70;;
74967;SDS011;63523;51.880;12.630;2022-11-11T14:02:13;2.67;;;0.47;;
74967;SDS011;63523;51.880;12.630;2022-11-11T14:10:57;2.53;;;0.52;;
74967;SDS011;63523;51.880;12.630;2022-11-11T14:15:46;4.70;;;0.50;;
74967;SDS011;63523;51.880;12.630;2022-11-11T14:20:43;4.10;;;0.70;;
74967;SDS011;63523;51.880;12.630;2022-11-11T14:25:48;4.13;;;0.50;;
74967;SDS011;63523;51.880;12.630;2022-11-11T14:30:47;3.03;;;0.40;;
74967;SDS011;63523;51.880;12.630;2022-11-11T14:49:47;4.97;;;0.55;;
74967;SDS011;63523;51.880;12.630;2022-11-11T14:57:36;2.03;;;0.30;;
74967;SDS011;63523;51.880;12.630;2022-11-11T15:00:13;2.38;;;0.50;;
74967;SDS011;63523;51.880;12.630;2022-11-11T15:02:50;3.40;;;0.47;;
74967;SDS011;63523;51.880;12.630;2022-11-11T15:05:29;2.33;;;0.50;;
74967;SDS011;63523;51.880;12.630;2022-11-11T15:13:51;4.72;;;0.80;;
74967;SDS011;63523;51.880;12.630;2022-11-11T15:27:39;6.22;;;1.35;;
74967;SDS011;63523;51.880;12.630;2022-11-11T15:30:23;6.47;;;1.00;;
74967;SDS011;63523;51.880;12.630;2022-11-11T15:33:17;5.53;;;0.80;;
74967;SDS011;63523;51.880;12.630;2022-11-11T15:35:56;6.60;;;1.00;;
74967;SDS011;63523;51.880;12.630;2022-11-11T15:38:23;4.70;;;0.75;;
74967;SDS011;63523;51.880;12.630;2022-11-11T15:40:51;3.30;;;0.90;;
74967;SDS011;63523;51.880;12.630;2022-11-11T15:43:26;4.15;;;0.70;;
74967;SDS011;63523;51.880;12.630;2022-11-11T15:45:56;3.00;;;0.60;;
74967;SDS011;63523;51.880;12.630;2022-11-11T15:48:37;4.93;;;1.10;;
74967;SDS011;63523;51.880;12.630;2022-11-11T15:53:46;4.53;;;0.80;;
74967;SDS011;63523;51.880;12.630;2022-11-11T15:56:25;3.35;;;0.68;;
74967;SDS011;63523;51.880;12.630;2022-11-11T15:58:53;3.07;;;0.60;;
74967;SDS011;63523;51.880;12.630;2022-11-11T16:01:19;5.90;;;0.80;;
74967;SDS011;63523;51.880;12.630;2022-11-11T16:03:50;4.43;;;1.10;;
74967;SDS011;63523;51.880;12.630;2022-11-11T16:06:15;5.10;;;1.10;;
74967;SDS011;63523;51.880;12.630;2022-11-11T16:08:42;4.43;;;1.05;;
74967;SDS011;63523;51.880;12.630;2022-11-11T16:11:13;4.90;;;1.33;;
74967;SDS011;63523;51.880;12.630;2022-11-11T16:13:55;3.65;;;1.10;;
74967;SDS011;63523;51.880;12.630;2022-11-11T16:16:27;5.53;;;1.30;;
74967;SDS011;63523;51.880;12.630;2022-11-11T16:24:06;5.53;;;1.40;;
74967;SDS011;63523;51.880;12.630;2022-11-11T16:26:49;5.95;;;1.70;;
74967;SDS011;63523;51.880;12.630;2022-11-11T16:29:15;6.27;;;1.90;;
74967;SDS011;63523;51.880;12.630;2022-11-11T16:31:41;6.60;;;1.83;;
74967;SDS011;63523;51.880;12.630;2022-11-11T16:39:26;6.20;;;2.47;;
74967;SDS011;63523;51.880;12.630;2022-11-11T16:41:53;6.90;;;2.83;;
74967;SDS011;63523;51.880;12.630;2022-11-11T16:47:00;5.47;;;2.00;;
74967;SDS011;63523;51.880;12.630;2022-11-11T16:49:37;7.55;;;2.38;;
74967;SDS011;63523;51.880;12.630;2022-11-11T16:52:08;8.10;;;2.10;;
74967;SDS011;63523;51.880;12.630;2022-11-11T16:54:46;6.30;;;1.90;;
74967;SDS011;63523;51.880;12.630;2022-11-11T16:57:20;6.30;;;2.08;;
74967;SDS011;63523;51.880;12.630;2022-11-11T16:59:50;6.97;;;2.40;;
74967;SDS011;63523;51.880;12.630;2022-11-11T17:02:20;5.43;;;2.15;;
74967;SDS011;63523;51.880;12.630;2022-11-11T17:04:48;6.13;;;2.43;;
74967;SDS011;63523;51.880;12.630;2022-11-11T17:12:32;5.68;;;2.10;;
74967;SDS011;63523;51.880;12.630;2022-11-11T17:14:58;7.80;;;2.20;;
74967;SDS011;63523;51.880;12.630;2022-11-11T17:17:24;5.27;;;2.00;;
74967;SDS011;63523;51.880;12.630;2022-11-11T17:19:50;5.37;;;2.00;;
74967;SDS011;63523;51.880;12.630;2022-11-11T17:22:15;6.10;;;1.75;;
74967;SDS011;63523;51.880;12.630;2022-11-11T17:24:41;7.57;;;2.10;;
74967;SDS011;63523;51.880;12.630;2022-11-11T17:27:07;6.43;;;2.00;;
74967;SDS011;63523;51.880;12.630;2022-11-11T17:29:33;6.72;;;2.05;;
74967;SDS011;63523;51.880;12.630;2022-11-11T17:31:59;5.78;;;2.30;;
74967;SDS011;63523;51.880;12.630;2022-11-11T17:34:25;7.40;;;2.40;;
74967;SDS011;63523;51.880;12.630;2022-11-11T17:36:50;7.78;;;2.50;;
74967;SDS011;63523;51.880;12.630;2022-11-11T17:39:16;7.27;;;2.40;;
74967;SDS011;63523;51.880;12.630;2022-11-11T17:41:41;5.70;;;1.40;;
74967;SDS011;63523;51.880;12.630;2022-11-11T17:44:07;7.68;;;2.30;;
74967;SDS011;63523;51.880;12.630;2022-11-11T17:46:32;7.37;;;2.20;;
74967;SDS011;63523;51.880;12.630;2022-11-11T17:48:58;8.37;;;2.47;;
74967;SDS011;63523;51.880;12.630;2022-11-11T17:51:23;5.63;;;2.05;;
74967;SDS011;63523;51.880;12.630;2022-11-11T17:53:50;7.37;;;2.43;;
74967;SDS011;63523;51.880;12.630;2022-11-11T17:56:16;7.00;;;2.33;;
74967;SDS011;63523;51.880;12.630;2022-11-11T17:58:42;6.72;;;2.40;;